الصفحة الرئيسية
METAR-TAF:

METAR-TAF

مطار :

مطار برج باجي مختار

برج باجي مختار, الجزائر

دائرة عرض: 21-22-30N, خط طول: 000-55-26E, ارتفاع: 396 متر

مراقبة الطقس الحالي

تاريخ ووقت الإصدار 15 دقيقة قبل الساعة 06:00UTC
ريح 5 عقدة من الشرق
درجة الحرارة 9°درجة مئوية
الرطوبة 21%
ضغط 1018 hPa
الرؤية 10 كم أو أكثر
الغيوم لا تقل 1500 م ولا وجود لمزنة ركامية السحاب الأسود

METAR: DATM 140600Z 08005KT CAVOK 09/M12 Q1018

زمن: 07:15 (06:15 UTC)

توقعات

تاريخ ووقت الإصدار 13ساعات و 15 دقيقة قبل الساعة 17:00UTC
التوقعات صالحة من13 الساعة 18 UTC إلى 14 الساعة 03 UTC
ريح 12 عقدة من الشمال/الشمال الشرقي
الرؤية 10 كم أو أكثر
الغيوم لا تقل 1500 م ولا وجود لمزنة ركامية السحاب الأسود

TAF: DATM 131700Z 1318/1403 02012KT CAVOK

أرصاد الطقس والتوقعات من أكثر من 4000 مطار (تقارير الطقس للمطار METAR والتنبؤ بالطقس بالمطارTAF).

المحطات المتاحة هي النقط الصفراء والحمراء على الخريطة.

حرك المؤشر فوق النقطة لمعرفة اسم المحطة.

ثم انقر لمعرفة أرصاد وتوقعات الطقس.

لتغيير الخارطة: اضغط على الأزرار الخضراء مع رمز الصليب الأسود للتكبير. على الزر الأخضر مع شرطة للتصغير، أو على الأسهم الخضراء للخرائط المجاورة.


METAR-TAF: